• Join FlightAware (Why Join?)
  • Login
  • US Flag 
Trick or treat! (Boo!!) 
07:54PM EDT


 

Airport Tracker/Info


-or-


 

Live Flight TrackerFlight Track Log ✈ TAM3385 ✈ 22-Jul-2013 ✈ SBCF / CNF - SBGL / GIG

Flight Track Log - Related Links

Times and Time Zones

All times are in EDT time to prevent confusion due to time zone crossing. See the TAM3385 flight status page for this flight to view local times or setup timezone preferences in your user account.

Time Position Orientation Groundspeed Altitude Reporting Facility
EDT Latitude Longitude Course Direction KTS MPH feet Rate Location/Type
06:39AM -19.6290 -43.9710 317° Northwest 26 30  Level FlightAware
06:39AM -19.6260 -43.9730 328° Northwest 27 31 1,260 Level FlightAware
06:42AM -19.7765 -43.9392 168° South  Level Estimated
06:42AM -19.6540 -43.9510 168° South 173 199 3,500  Level FlightAware
06:42AM -19.6600 -43.9490 163° South 187 215 3,700 1,500 Climbing FlightAware
06:42AM -19.6900 -43.9410 166° South 226 260 4,500 1,740 Climbing FlightAware
06:43AM -19.7150 -43.9300 158° South 252 290 5,300 2,040 Climbing FlightAware
06:43AM -19.7420 -43.9150 152° Southeast 282 325 6,200 3,000 Climbing FlightAware
06:44AM -19.7690 -43.9010 154° Southeast 285 328 7,600 3,720 Climbing FlightAware
06:44AM -19.8110 -43.8790 154° Southeast 290 334 9,700 2,820 Climbing FlightAware
06:45AM -19.8760 -43.8450 154° Southeast 330 380 11,700 1,920 Climbing FlightAware
06:45AM -19.8980 -43.8380 163° South 351 404 11,900 1,680 Climbing FlightAware
06:46AM -19.9710 -43.8300 174° South 376 433 13,400 2,280 Climbing FlightAware
06:47AM -20.0530 -43.8230 175° South 390 449 15,300 2,580 Climbing FlightAware
06:47AM -20.1020 -43.8380 196° South 391 450 16,500 2,280 Climbing FlightAware
06:48AM -20.1560 -43.8670 207° Southwest 401 461 17,700 2,340 Climbing FlightAware
06:48AM -20.2340 -43.8860 193° South 405 466 19,500 2,340 Climbing FlightAware
06:49AM -20.3070 -43.9010 191° South 411 473 20,900 2,100 Climbing FlightAware
06:50AM -20.3770 -43.9160 191° South 419 482 22,200 1,980 Climbing FlightAware
06:50AM -20.4700 -43.9350 191° South 427 491 23,700 1,680 Climbing FlightAware
06:51AM -20.5540 -43.9520 191° South 439 505 24,800 1,740 Climbing FlightAware
06:52AM -20.6350 -43.9680 190° South 437 503 26,200 2,040 Climbing FlightAware
06:53AM -20.7200 -43.9850 191° South 433 498 27,700 2,280 Climbing FlightAware
06:53AM -20.7950 -44.0000 191° South 423 487 29,300 1,800 Climbing FlightAware
06:54AM -20.8680 -44.0070 185° South 409 471 30,000 480 Climbing FlightAware
06:55AM -20.9560 -44.0010 176° South 421 484 30,000  Level FlightAware
06:55AM -21.0170 -43.9890 170° South 424 488 30,000  Level FlightAware
06:56AM -21.0720 -43.9770 168° South 425 489 30,000  Level FlightAware
06:57AM -21.1540 -43.9590 168° South 423 487 30,000 -180 Level FlightAware
06:57AM -21.2380 -43.9410 169° South 423 487 29,800 -1,380 Descending FlightAware
06:58AM -21.3280 -43.9220 169° South 430 495 28,000 -2,400 Descending FlightAware
06:59AM -21.4330 -43.8990 168° South 426 490 26,100 -1,920 Descending FlightAware
07:00AM -21.5190 -43.8800 168° South 409 471 25,000 -1,560 Descending FlightAware
07:00AM -21.5880 -43.8650 169° South 398 458 24,000 -1,440 Descending FlightAware
07:01AM -21.6560 -43.8500 168° South 380 437 23,200 -1,680 Descending FlightAware
07:02AM -21.7300 -43.8340 169° South 382 440 21,700 -1,800 Descending FlightAware
07:02AM -21.7760 -43.8250 170° South 378 435 21,100 -600 Descending FlightAware
07:03AM -21.8540 -43.8070 168° South 368 423 21,000 -240 Descending FlightAware
07:03AM -21.9180 -43.7930 169° South 367 422 20,800 -780 Descending FlightAware
07:04AM -21.9850 -43.7790 169° South 361 415 20,000 -540 Descending FlightAware
07:05AM -22.0710 -43.7500 163° South 372 428 20,000  Level FlightAware
07:06AM -22.1140 -43.7210 148° Southeast 372 428 20,000 -180 Level FlightAware
07:06AM -22.1760 -43.6810 149° Southeast 374 430 19,800 -1,620 Descending FlightAware
07:07AM -22.2590 -43.6260 148° Southeast 362 417 17,400 -2,580 Descending FlightAware
07:08AM -22.3130 -43.5910 149° Southeast 354 407 15,800 -2,520 Descending FlightAware
07:09AM -22.3640 -43.5570 148° Southeast 352 405 14,200 -1,980 Descending FlightAware
07:09AM -22.3970 -43.5140 130° Southeast 347 399 13,300 -960 Descending FlightAware
07:10AM -22.3930 -43.4400 87° East 329 379 13,000 -240 Descending FlightAware
07:10AM -22.3830 -43.3730 81° East 327 376 13,000  Level FlightAware
07:11AM -22.3740 -43.3160 80° East 279 321 13,000  Level FlightAware
07:12AM -22.3650 -43.2530 81° East 267 307 13,000 -300 Level FlightAware
07:13AM -22.3560 -43.1970 80° East 259 298 12,600 -840 Descending FlightAware
07:13AM -22.3490 -43.1470 81° East 253 291 11,900 -1,020 Descending FlightAware
07:14AM -22.3410 -43.0980 80° East 247 284 11,300 -960 Descending FlightAware
07:15AM -22.3520 -43.0410 102° East 243 280 10,700 -1,140 Descending FlightAware
07:15AM -22.3750 -42.9980 120° Southeast 252 290 9,900 -1,140 Descending FlightAware
07:16AM -22.3890 -42.9710 119° Southeast 250 288 9,500 -960 Descending FlightAware
07:16AM -22.4000 -42.9490 118° Southeast 249 287 9,200 -720 Descending FlightAware
07:16AM -22.4130 -42.9230 118° Southeast 241 277 9,000 -480 Descending FlightAware
07:17AM -22.4290 -42.8930 120° Southeast 244 281 8,800 -660 Descending FlightAware
07:17AM -22.4440 -42.8640 119° Southeast 241 277 8,400 -720 Descending FlightAware
07:18AM -22.4530 -42.8460 118° Southeast 242 278 8,300 -540 Descending FlightAware
07:18AM -22.4610 -42.8270 114° Southeast 236 272 8,100 -600 Descending FlightAware
07:18AM -22.4690 -42.8120 120° Southeast 235 270 8,000 -180 Descending FlightAware
07:19AM -22.4840 -42.7810 118° Southeast 234 269 8,000  Level FlightAware
07:19AM -22.5010 -42.7530 123° Southeast 237 273 8,000  Level FlightAware
07:19AM -22.5140 -42.7460 154° Southeast 229 264 8,000  Level FlightAware
07:20AM -22.5420 -42.7490 186° South 227 261 8,000  Level FlightAware
07:20AM -22.5590 -42.7510 186° South 228 262 8,000 -240 Level FlightAware
07:20AM -22.5710 -42.7560 201° Southwest 229 264 7,900 -480 Descending FlightAware
07:21AM -22.5940 -42.7740 216° Southwest 222 255 7,700 -1,020 Descending FlightAware
07:21AM -22.6180 -42.7930 216° Southwest 229 264 7,000 -1,200 Descending FlightAware
07:22AM -22.6420 -42.8110 215° Southwest 224 258 6,600 -1,080 Descending FlightAware
07:22AM -22.6660 -42.8290 215° Southwest 226 260 6,000 -1,260 Descending FlightAware
07:23AM -22.6910 -42.8500 218° Southwest 222 255 5,400 -1,200 Descending FlightAware
07:23AM -22.6980 -42.8610 235° Southwest 219 252 5,200 -900 Descending FlightAware
07:23AM -22.7030 -42.8760 250° West 213 245 5,000 -1,140 Descending FlightAware
07:24AM -22.7110 -42.9050 253° West 207 238 4,400 -1,320 Descending FlightAware
07:24AM -22.7180 -42.9320 254° West 197 227 3,800 -1,500 Descending FlightAware
07:24AM -22.7250 -42.9580 254° West 193 222 3,000 -1,440 Descending FlightAware
07:25AM -22.7320 -42.9830 253° West 181 208 2,500 -1,200 Descending FlightAware
07:25AM -22.7380 -43.0070 255° West 186 214 1,900 -1,200 Descending FlightAware
07:26AM -22.7400 -43.0180 259° West 182 209 1,700 -540 Descending FlightAware
07:26AM -22.7440 -43.0300 250° West 177 204 1,600 -120 Descending FlightAware
07:26AM -22.7490 -43.0490 254° West 165 190 1,600  Level FlightAware
07:27AM -22.7550 -43.0750 256° West 163 188 1,600  Level FlightAware
07:27AM -22.7600 -43.0930 253° West 155 178 1,600  Level FlightAware
07:28AM -22.7650 -43.1140 256° West 149 171 1,600 -120 Level FlightAware
07:28AM -22.7710 -43.1360 254° West 143 165 1,500 -480 Descending FlightAware
07:29AM -22.7760 -43.1540 253° West 143 165 1,200 -900 Descending FlightAware
07:29AM -22.7790 -43.1670 256° West 140 161 900 -840 Descending FlightAware
07:30AM -22.7840 -43.1850 253° West 134 154 600 -660 Descending FlightAware
07:31AM -22.7950 -43.2270 254° West 137 158 -600 Descending FlightAware
07:31AM -22.7950 -43.2110 90° East 137 158  Level FlightAware
07:32AM -22.8000 -43.2420 260° West  Level FlightAware
07:33AM -22.8060 -43.2550 190° South 137 158  Level FlightAware
07:34AM -22.8089 -43.2436 190° South  Level Estimated
07:34AM -22.8020 -43.2390 75° East 137 158  Level FlightAware
07:35AM -22.8080 -43.2430 212° Southwest 137 158  Level FlightAware
07:36AM -22.8140 -43.2550 242° Southwest  Level FlightAware
07:38AM -22.8130 -43.2480 81° East  Level FlightAware
07:41AM -22.8089 -43.2436 44° Northeast  Level Estimated
07:42AM -22.8089 -43.2436 137° Southeast  Level Estimated
07:43AM -22.8089 -43.2436 137° Southeast  Level Estimated
07:44AM -22.8089 -43.2436 137° Southeast  Level Estimated
07:45AM -22.8089 -43.2436 137° Southeast  Level Estimated
07:46AM -22.8089 -43.2436 137° Southeast  Level Estimated
07:47AM -22.8089 -43.2436 137° Southeast  Level Estimated
07:48AM -22.8089 -43.2436 137° Southeast  Level Estimated
07:49AM -22.8089 -43.2436 137° Southeast  Level Estimated
07:50AM -22.8089 -43.2436 137° Southeast  Level Estimated